Time;durP1;ratioP1;P1;durP2;ratioP2;P2;SDS_P1;SDS_P2;PMS_P1;PMS_P2;Temp;Humidity;BMP_temperature;BMP_pressure;BME280_temperature;BME280_humidity;BME280_pressure;Samples;Min_cycle;Max_cycle;Signal;HPM_P1;HPM_P2
2023/07/19 00:02:02;;;;;;;9.00;5.70;;;;;;;19.91;44.60;100249.23;110412;1263;23792;-77
2023/07/19 00:04:47;;;;;;;11.20;6.40;;;;;;;19.92;44.61;100246.48;110186;1263;21969;-77
2023/07/19 00:07:27;;;;;;;11.30;6.40;;;;;;;19.93;44.58;100241.32;110634;1259;23790;-79
2023/07/19 00:10:15;;;;;;;11.10;6.10;;;;;;;19.91;44.55;100235.85;110734;1259;21919;-78
2023/07/19 00:12:56;;;;;;;11.20;6.10;;;;;;;19.87;44.66;100233.66;110818;1255;21960;-78
2023/07/19 00:15:38;;;;;;;11.90;6.10;;;;;;;19.86;44.91;100233.18;110866;1259;22710;-77
2023/07/19 00:18:19;;;;;;;10.40;6.10;;;;;;;19.87;44.82;100227.64;110862;1255;23721;-76
2023/07/19 00:20:53;;;;;;;13.80;6.30;;;;;;;19.85;44.79;100221.50;111179;1255;22086;-76
2023/07/19 00:23:27;;;;;;;;;;;;;;;19.85;44.91;100222.67;111166;1255;21940;-77
2023/07/19 00:26:05;;;;;;;9.30;5.80;;;;;;;19.79;44.97;100226.38;111344;1255;22098;-78
2023/07/19 00:28:50;;;;;;;11.20;6.20;;;;;;;19.78;44.79;100224.36;111443;1255;23593;-78
2023/07/19 00:31:48;;;;;;;8.90;5.80;;;;;;;19.74;44.69;100210.82;111036;1255;22953;-76
2023/07/19 00:34:31;;;;;;;12.20;6.60;;;;;;;19.82;44.64;100209.71;110776;1260;23619;-77
2023/07/19 00:37:19;;;;;;;9.50;6.30;;;;;;;19.83;44.74;100207.33;110675;1260;21968;-79
2023/07/19 00:39:59;;;;;;;9.20;5.30;;;;;;;19.83;44.71;100200.27;110751;1260;23641;-79
2023/07/19 00:42:57;;;;;;;8.60;5.90;;;;;;;19.75;45.00;100188.32;110612;1260;22249;-79
2023/07/19 00:46:13;;;;;;;8.20;6.20;;;;;;;19.78;45.36;100196.40;110103;1266;22717;-79
2023/07/19 00:49:14;;;;;;;;;;;;;;;;;;;;;
2023/07/19 00:52:04;;;;;;;11.30;6.10;;;;;;;19.72;46.20;100185.92;109576;1268;21971;-81
2023/07/19 00:54:50;;;;;;;9.20;5.90;;;;;;;19.72;46.29;100179.42;109718;1267;22030;-78
2023/07/19 00:57:26;;;;;;;7.60;5.20;;;;;;;19.71;46.41;100179.79;110074;1267;21988;-77
2023/07/19 01:00:19;;;;;;;10.40;6.00;;;;;;;19.70;46.41;100178.29;109402;1271;21980;-81
2023/07/19 01:03:19;;;;;;;10.30;6.10;;;;;;;19.67;46.42;100174.66;109479;1266;22048;-80
2023/07/19 01:06:20;;;;;;;9.50;5.50;;;;;;;19.63;46.66;100173.17;109222;1268;23746;-78
2023/07/19 01:09:24;;;;;;;6.20;4.50;;;;;;;19.59;46.60;100174.39;109396;1272;23623;-78
2023/07/19 01:12:13;;;;;;;7.90;4.90;;;;;;;19.57;46.61;100166.60;109576;1271;21990;-81
2023/07/19 01:15:05;;;;;;;11.50;5.20;;;;;;;19.57;46.75;100165.40;109069;1275;23856;-78
2023/07/19 01:17:45;;;;;;;8.70;5.50;;;;;;;19.56;46.69;100161.44;109028;1275;24441;-77
2023/07/19 01:20:26;;;;;;;11.90;5.20;;;;;;;19.53;46.67;100163.19;109234;1275;21981;-79
2023/07/19 01:23:11;;;;;;;8.40;5.80;;;;;;;19.53;46.67;100169.75;109178;1268;22016;-80
2023/07/19 01:25:45;;;;;;;14.80;5.20;;;;;;;19.50;46.76;100171.59;109687;1270;22071;-77
2023/07/19 01:28:28;;;;;;;8.50;5.50;;;;;;;19.49;46.88;100171.13;109569;1270;22140;-77
2023/07/19 01:31:09;;;;;;;9.00;6.20;;;;;;;19.46;46.93;100170.98;108999;1274;21990;-79
2023/07/19 01:33:44;;;;;;;9.50;5.20;;;;;;;19.45;47.05;100169.49;109088;1276;23438;-79
2023/07/19 01:36:29;;;;;;;10.00;6.20;;;;;;;19.42;47.41;100162.68;109092;1273;23789;-77
2023/07/19 01:39:13;;;;;;;8.90;5.60;;;;;;;19.36;47.18;100159.09;109206;1273;23634;-76
2023/07/19 01:42:19;;;;;;;10.70;6.20;;;;;;;19.27;47.13;100151.33;109388;1273;21998;-77
2023/07/19 01:44:49;;;;;;;9.10;6.20;;;;;;;19.23;47.24;100145.77;109314;1269;23044;-75
2023/07/19 01:47:22;;;;;;;11.40;6.10;;;;;;;19.26;47.14;100144.30;109511;1269;21974;-77
2023/07/19 01:50:00;;;;;;;9.80;6.20;;;;;;;19.24;47.06;100139.68;109261;1272;22093;-75
2023/07/19 01:52:37;;;;;;;10.30;5.20;;;;;;;19.23;47.00;100137.80;109352;1265;23081;-76
2023/07/19 01:55:36;;;;;;;14.90;6.10;;;;;;;19.21;46.90;100140.63;110058;1268;23513;-76
2023/07/19 01:58:10;;;;;;;13.20;6.50;;;;;;;19.20;46.93;100144.77;109922;1261;21984;-77
2023/07/19 02:00:40;;;;;;;12.20;5.40;;;;;;;19.17;47.39;100143.62;110631;1261;22023;-76
2023/07/19 02:03:12;;;;;;;10.00;5.80;;;;;;;19.11;47.67;100145.59;110413;1264;23762;-76
2023/07/19 02:06:05;;;;;;;11.30;5.90;;;;;;;19.04;48.00;100140.31;110312;1253;21980;-76
2023/07/19 02:08:36;;;;;;;11.30;6.60;;;;;;;18.97;48.44;100138.05;110470;1259;23065;-75
2023/07/19 02:11:07;;;;;;;11.40;5.50;;;;;;;18.94;48.75;100138.52;110784;1260;21957;-78
2023/07/19 02:13:39;;;;;;;9.50;5.20;;;;;;;18.90;49.13;100143.73;110505;1259;22391;-76
2023/07/19 02:16:08;;;;;;;12.40;5.90;;;;;;;18.86;49.38;100138.03;110308;1264;23041;-76
2023/07/19 02:19:06;;;;;;;8.90;6.40;;;;;;;18.80;49.54;100135.63;109596;1268;21973;-79
2023/07/19 02:21:49;;;;;;;10.30;6.00;;;;;;;18.74;49.65;100133.95;109557;1268;23042;-75
2023/07/19 02:24:30;;;;;;;10.70;5.70;;;;;;;18.70;49.87;100133.70;109738;1260;22004;-76
2023/07/19 02:27:02;;;;;;;9.60;5.20;;;;;;;18.65;50.01;100132.69;109072;1271;22001;-78
2023/07/19 02:29:36;;;;;;;10.80;6.00;;;;;;;18.56;50.06;100120.65;108985;1276;22717;-78
2023/07/19 02:32:06;;;;;;;10.00;5.20;;;;;;;18.52;50.37;100128.15;108904;1276;22776;-77
2023/07/19 02:34:40;;;;;;;8.90;5.30;;;;;;;18.47;50.64;100124.15;109170;1273;21977;-79
2023/07/19 02:37:16;;;;;;;9.40;5.50;;;;;;;18.42;50.77;100120.86;109609;1268;23709;-77
2023/07/19 02:39:59;;;;;;;8.20;5.40;;;;;;;18.37;51.15;100124.73;109275;1272;21984;-77
2023/07/19 02:42:38;;;;;;;11.90;5.80;;;;;;;18.33;51.39;100128.92;109157;1272;21986;-77
2023/07/19 02:45:15;;;;;;;10.40;5.70;;;;;;;18.29;51.60;100126.87;109151;1272;21973;-77
2023/07/19 02:47:53;;;;;;;11.00;6.30;;;;;;;18.27;51.78;100127.02;109374;1272;22840;-77
2023/07/19 02:50:26;;;;;;;9.30;6.60;;;;;;;18.19;51.80;100121.45;109031;1272;23640;-76
2023/07/19 02:53:04;;;;;;;9.40;5.50;;;;;;;18.18;51.95;100134.59;109740;1266;22015;-78
2023/07/19 02:55:43;;;;;;;10.60;6.10;;;;;;;18.11;52.35;100129.45;110547;1262;21975;-78
2023/07/19 02:58:28;;;;;;;11.40;6.70;;;;;;;18.03;52.51;100124.40;110815;1255;23570;-76
2023/07/19 03:01:08;;;;;;;8.90;6.60;;;;;;;17.94;52.51;100128.38;110970;1255;23021;-77
2023/07/19 03:03:52;;;;;;;10.00;6.20;;;;;;;17.87;52.67;100132.23;111083;1255;23599;-77
2023/07/19 03:06:30;;;;;;;12.70;7.40;;;;;;;17.82;52.89;100132.72;111129;1254;22998;-77
2023/07/19 03:09:10;;;;;;;11.60;7.10;;;;;;;17.79;52.86;100133.11;110688;1260;23611;-77
2023/07/19 03:12:05;;;;;;;11.30;6.50;;;;;;;17.76;53.08;100134.23;110664;1254;23068;-77
2023/07/19 03:17:32;;;;;;;11.10;6.90;;;;;;;17.70;53.57;100138.67;110569;1257;21970;-77
2023/07/19 03:20:12;;;;;;;17.00;6.80;;;;;;;17.71;53.68;100132.64;110322;1263;21966;-76
2023/07/19 03:22:42;;;;;;;11.70;7.20;;;;;;;17.70;53.65;100132.30;110570;1262;21978;-76
2023/07/19 03:25:31;;;;;;;;;;;;;;;;;;;;;
2023/07/19 03:28:28;;;;;;;18.10;8.20;;;;;;;17.70;53.94;100127.27;110081;1263;23056;-76
2023/07/19 03:31:13;;;;;;;15.20;8.60;;;;;;;17.71;53.82;100124.21;110153;1263;23612;-77
2023/07/19 03:34:15;;;;;;;12.40;7.50;;;;;;;17.73;53.85;100128.27;110263;1263;22745;-76
2023/07/19 03:36:56;;;;;;;15.40;8.80;;;;;;;17.76;53.98;100131.21;110305;1263;21992;-77
2023/07/19 03:40:03;;;;;;;15.30;8.10;;;;;;;17.79;53.96;100128.73;109469;1268;23788;-78
2023/07/19 03:42:48;;;;;;;13.20;7.00;;;;;;;17.79;54.23;100126.92;109735;1263;22634;-78
2023/07/19 03:45:36;;;;;;;15.60;7.30;;;;;;;17.81;54.37;100125.41;110369;1260;21955;-76
2023/07/19 03:48:18;;;;;;;11.40;7.90;;;;;;;17.83;54.57;100122.14;110192;1265;23052;-76
2023/07/19 03:51:17;;;;;;;12.20;8.10;;;;;;;17.84;54.56;100120.42;110254;1265;23722;-76
2023/07/19 03:53:57;;;;;;;14.00;7.80;;;;;;;17.88;54.50;100114.55;109702;1271;21985;-76
2023/07/19 03:56:30;;;;;;;15.50;8.40;;;;;;;17.93;54.62;100117.21;109056;1275;22363;-77
2023/07/19 03:59:13;;;;;;;13.80;7.60;;;;;;;17.97;54.80;100120.40;109015;1276;22079;-77
2023/07/19 04:01:46;;;;;;;9.50;7.70;;;;;;;18.03;54.67;100124.78;108972;1276;22958;-76
2023/07/19 04:04:19;;;;;;;15.70;9.20;;;;;;;18.08;54.78;100128.64;109062;1276;22023;-75
2023/07/19 04:06:52;;;;;;;14.20;8.60;;;;;;;18.12;54.72;100129.85;109229;1272;21971;-77
2023/07/19 04:09:32;;;;;;;13.30;8.40;;;;;;;18.17;54.65;100132.19;109464;1272;23088;-76
2023/07/19 04:12:16;;;;;;;12.40;7.80;;;;;;;18.24;54.70;100133.07;109753;1266;21975;-77
2023/07/19 04:15:02;;;;;;;11.20;8.80;;;;;;;18.31;54.60;100126.39;110145;1263;23024;-75
2023/07/19 04:17:46;;;;;;;15.20;8.40;;;;;;;18.37;54.14;100125.83;110448;1262;22446;-75
2023/07/19 04:20:25;;;;;;;12.80;8.60;;;;;;;18.38;53.53;100124.30;110516;1262;21995;-77
2023/07/19 04:23:17;;;;;;;15.10;12.90;;;;;;;18.32;52.90;100128.11;109958;1261;21975;-77
2023/07/19 04:25:52;;;;;;;15.20;8.90;;;;;;;18.23;53.00;100127.39;110525;1261;23634;-76
2023/07/19 04:28:28;;;;;;;12.50;8.30;;;;;;;18.22;53.22;100127.91;110761;1261;22899;-75
2023/07/19 04:30:59;;;;;;;17.30;7.70;;;;;;;18.29;53.53;100129.53;110554;1261;23050;-75
2023/07/19 04:33:30;;;;;;;14.40;8.40;;;;;;;18.39;53.64;100128.49;110600;1261;23479;-76
2023/07/19 04:36:41;;;;;;;10.70;7.50;;;;;;;18.46;53.41;100121.22;110686;1261;23072;-77
2023/07/19 04:39:15;;;;;;;13.00;7.50;;;;;;;18.56;53.44;100116.28;110632;1261;23050;-77
2023/07/19 04:41:53;;;;;;;13.90;8.30;;;;;;;18.67;53.39;100118.98;110851;1255;22953;-76
2023/07/19 04:44:43;;;;;;;13.30;7.70;;;;;;;18.72;53.11;100122.98;110904;1255;22118;-78
2023/07/19 04:47:33;;;;;;;12.50;7.50;;;;;;;18.74;53.23;100126.59;110974;1255;22080;-78
2023/07/19 04:50:08;;;;;;;14.00;7.70;;;;;;;18.78;53.45;100126.95;110851;1260;22082;-77
2023/07/19 04:52:48;;;;;;;13.00;7.90;;;;;;;18.88;53.35;100126.91;109823;1267;21973;-77
2023/07/19 04:55:34;;;;;;;;;;;;;;;;;;;;;
2023/07/19 04:58:35;;;;;;;10.40;7.50;;;;;;;19.01;52.73;100127.31;109437;1271;21961;-76
2023/07/19 05:01:22;;;;;;;14.20;7.20;;;;;;;19.14;52.64;100126.19;109460;1272;21996;-77
2023/07/19 05:04:01;;;;;;;13.50;8.80;;;;;;;19.28;52.09;100127.55;109436;1271;22807;-78
2023/07/19 05:06:44;;;;;;;25.80;9.90;;;;;;;19.35;51.51;100126.55;109418;1271;24353;-75
2023/07/19 05:09:17;;;;;;;16.40;8.50;;;;;;;19.41;51.14;100132.04;109857;1266;23692;-77
2023/07/19 05:12:09;;;;;;;10.90;8.10;;;;;;;19.43;50.42;100131.05;110673;1261;21965;-76
2023/07/19 05:15:19;;;;;;;13.80;8.60;;;;;;;19.44;50.18;100129.86;111068;1255;21955;-74
2023/07/19 05:18:36;;;;;;;21.80;11.40;;;;;;;19.47;49.98;100125.53;111064;1255;22165;-75
2023/07/19 05:21:28;;;;;;;12.30;8.20;;;;;;;19.54;49.69;100121.17;110970;1255;22360;-77
2023/07/19 05:24:07;;;;;;;13.80;9.10;;;;;;;19.65;49.63;100120.77;111152;1255;23014;-81
2023/07/19 05:26:46;;;;;;;10.20;8.00;;;;;;;19.90;49.69;100116.57;111001;1255;23045;-79
2023/07/19 05:29:36;;;;;;;13.70;8.40;;;;;;;20.30;49.61;100120.04;110780;1259;21966;-76
2023/07/19 05:32:18;;;;;;;11.50;8.40;;;;;;;20.59;48.13;100120.84;110695;1254;22034;-75
2023/07/19 05:34:56;;;;;;;9.60;7.80;;;;;;;20.77;47.68;100118.77;110589;1260;23013;-77
2023/07/19 05:37:28;;;;;;;15.20;8.20;;;;;;;21.03;47.51;100115.92;110133;1266;22240;-75
2023/07/19 05:40:03;;;;;;;10.80;8.10;;;;;;;21.35;46.89;100111.05;109786;1266;21985;-76
2023/07/19 05:42:42;;;;;;;;;;;;;;;21.67;46.50;100108.39;109932;1266;21940;-74
2023/07/19 05:45:27;;;;;;;10.10;7.70;;;;;;;21.89;45.57;100104.05;109659;1271;22996;-75
2023/07/19 05:48:09;;;;;;;16.40;8.60;;;;;;;22.00;44.92;100105.44;109961;1267;23696;-74
2023/07/19 05:50:47;;;;;;;13.80;8.50;;;;;;;22.24;44.87;100106.73;109803;1267;21975;-74
2023/07/19 05:53:33;;;;;;;12.30;7.60;;;;;;;22.54;43.81;100102.22;109795;1267;22062;-75
2023/07/19 05:56:15;;;;;;;13.30;7.70;;;;;;;22.80;43.11;100100.19;109699;1267;21983;-74
2023/07/19 05:59:04;;;;;;;19.00;16.00;;;;;;;23.12;42.11;100098.09;110058;1267;23711;-75
2023/07/19 06:01:54;;;;;;;17.00;11.70;;;;;;;23.58;41.69;100098.66;110170;1267;21994;-75
2023/07/19 06:04:53;;;;;;;12.80;9.70;;;;;;;24.09;40.80;100097.89;110569;1260;21978;-75
2023/07/19 06:07:50;;;;;;;14.10;9.50;;;;;;;24.55;39.98;100098.27;110646;1260;23884;-75
2023/07/19 06:10:56;;;;;;;12.40;8.90;;;;;;;25.05;39.26;100098.35;110683;1260;23610;-75
2023/07/19 06:13:30;;;;;;;10.70;7.50;;;;;;;25.39;37.79;100097.62;110702;1255;21957;-74
2023/07/19 06:16:11;;;;;;;14.80;7.40;;;;;;;25.63;37.04;100090.13;110976;1254;21973;-75
2023/07/19 06:18:53;;;;;;;11.60;7.40;;;;;;;25.82;36.18;100088.21;111012;1255;23619;-76
2023/07/19 06:21:28;;;;;;;14.00;6.60;;;;;;;26.22;36.48;100085.02;111174;1255;21962;-75
2023/07/19 06:23:58;;;;;;;15.90;6.90;;;;;;;26.66;35.18;100077.61;110841;1260;23544;-75
2023/07/19 06:26:29;;;;;;;15.50;7.20;;;;;;;27.08;34.19;100081.22;110370;1260;21976;-76
2023/07/19 06:29:00;;;;;;;13.10;6.50;;;;;;;27.27;33.03;100071.20;109879;1267;22914;-74
2023/07/19 06:31:31;;;;;;;9.10;6.50;;;;;;;27.52;32.79;100083.06;109349;1272;22227;-76
2023/07/19 06:34:02;;;;;;;9.50;6.50;;;;;;;27.76;32.51;100082.81;109437;1272;21991;-74
2023/07/19 06:36:36;;;;;;;14.80;6.40;;;;;;;27.92;32.10;100086.67;109387;1272;21971;-76
2023/07/19 06:39:06;;;;;;;13.40;5.90;;;;;;;28.11;31.89;100082.37;109112;1276;21995;-77
2023/07/19 06:41:37;;;;;;;8.60;6.50;;;;;;;28.39;31.65;100081.09;109360;1272;21991;-79
2023/07/19 06:44:24;;;;;;;14.50;6.00;;;;;;;28.63;30.74;100080.77;109569;1272;21975;-81
2023/07/19 06:47:03;;;;;;;14.10;6.00;;;;;;;28.83;30.72;100078.83;109552;1271;23634;-81
2023/07/19 06:49:35;;;;;;;7.10;4.80;;;;;;;29.07;30.44;100069.66;109983;1265;22171;-78
2023/07/19 06:52:18;;;;;;;9.40;5.60;;;;;;;29.42;29.71;100075.46;110230;1263;21943;-80
2023/07/19 06:54:55;;;;;;;10.50;5.20;;;;;;;29.65;29.57;100072.14;110625;1265;21993;-79
2023/07/19 06:57:40;;;;;;;;;;;;;;;;;;;;;
2023/07/19 07:00:17;;;;;;;8.30;5.20;;;;;;;30.00;28.68;100070.55;109950;1270;21907;-79
2023/07/19 07:02:55;;;;;;;12.50;5.10;;;;;;;30.18;28.59;100067.73;110046;1270;21980;-79
2023/07/19 07:05:29;;;;;;;9.90;5.20;;;;;;;30.47;28.68;100066.44;110872;1259;21995;-79
2023/07/19 07:08:09;;;;;;;8.50;4.40;;;;;;;30.74;28.21;100060.52;110255;1267;21999;-80
2023/07/19 07:10:50;;;;;;;7.70;4.10;;;;;;;30.89;27.56;100051.05;110536;1267;22376;-79
2023/07/19 07:13:35;;;;;;;9.50;4.50;;;;;;;31.09;27.53;100048.14;110473;1267;22169;-80
2023/07/19 07:16:15;;;;;;;5.50;3.70;;;;;;;31.31;26.86;100044.77;110882;1262;22060;-79
2023/07/19 07:18:46;;;;;;;4.30;3.50;;;;;;;31.54;25.91;100044.62;110648;1262;21997;-77
2023/07/19 07:21:18;;;;;;;8.20;3.40;;;;;;;31.72;24.98;100049.08;110752;1262;23120;-78
2023/07/19 07:23:49;;;;;;;8.00;3.10;;;;;;;31.78;24.86;100047.73;110912;1262;23023;-79
2023/07/19 07:26:21;;;;;;;9.20;2.50;;;;;;;31.92;24.57;100043.72;111131;1256;21997;-79
2023/07/19 07:28:54;;;;;;;5.70;2.90;;;;;;;31.87;24.12;100042.10;111437;1255;23599;-78
2023/07/19 07:31:27;;;;;;;5.40;2.60;;;;;;;31.93;24.32;100038.36;111299;1255;21966;-80
2023/07/19 07:34:06;;;;;;;6.50;2.20;;;;;;;32.04;23.83;100036.04;111303;1255;23603;-79
2023/07/19 07:36:41;;;;;;;3.40;2.10;;;;;;;31.88;23.17;100030.05;111498;1255;22631;-77
2023/07/19 07:39:20;;;;;;;;;;;;;;;31.77;23.17;100024.64;110756;1261;23584;-80
2023/07/19 07:42:14;;;;;;;5.90;1.70;;;;;;;31.80;23.16;100021.37;110805;1261;21937;-78
2023/07/19 07:44:55;;;;;;;6.50;2.00;;;;;;;31.90;22.63;100011.92;110285;1267;23580;-78
2023/07/19 07:47:26;;;;;;;6.80;1.60;;;;;;;31.88;22.43;100013.42;109507;1272;22260;-78
2023/07/19 07:50:00;;;;;;;2.50;1.40;;;;;;;31.91;22.24;100012.86;109473;1272;21987;-78
2023/07/19 07:52:31;;;;;;;4.30;1.90;;;;;;;31.94;21.62;100005.61;109635;1272;21989;-78
2023/07/19 07:55:06;;;;;;;4.30;1.50;;;;;;;32.02;21.71;100003.36;109402;1272;23150;-79
2023/07/19 07:57:37;;;;;;;4.70;2.30;;;;;;;32.26;21.89;100008.14;109702;1268;22996;-79
2023/07/19 08:00:18;;;;;;;2.80;1.80;;;;;;;32.42;21.18;100011.29;110272;1268;23036;-79
2023/07/19 08:03:02;;;;;;;4.40;1.70;;;;;;;32.55;21.20;100008.52;110066;1261;23025;-81
2023/07/19 08:05:59;;;;;;;7.00;1.80;;;;;;;32.61;21.12;100006.54;110157;1261;23701;-79
2023/07/19 08:08:34;;;;;;;4.90;1.40;;;;;;;32.59;20.65;100004.52;110939;1261;22316;-82
2023/07/19 08:11:21;;;;;;;4.60;1.60;;;;;;;32.61;21.03;100004.60;111060;1261;22073;-80
2023/07/19 08:13:57;;;;;;;3.30;1.50;;;;;;;32.62;20.57;99999.56;110441;1265;21932;-78
2023/07/19 08:16:33;;;;;;;3.00;1.50;;;;;;;32.68;20.71;100004.24;110593;1265;21971;-79
2023/07/19 08:19:04;;;;;;;6.20;2.10;;;;;;;32.64;20.52;100003.38;110537;1265;22214;-79
2023/07/19 08:21:38;;;;;;;2.80;1.70;;;;;;;32.64;20.87;100004.41;110344;1265;22040;-79
2023/07/19 08:24:16;;;;;;;4.20;1.30;;;;;;;32.66;20.76;100007.81;110775;1257;23037;-79
2023/07/19 08:27:06;;;;;;;4.20;1.50;;;;;;;32.65;20.53;100010.54;110900;1260;21979;-79
2023/07/19 08:29:37;;;;;;;2.40;1.60;;;;;;;32.56;20.61;100003.43;110476;1265;21983;-79
2023/07/19 08:32:13;;;;;;;2.70;1.60;;;;;;;32.34;20.28;99997.79;110587;1261;22088;-77
2023/07/19 08:34:53;;;;;;;4.20;1.80;;;;;;;32.28;20.81;99999.29;110326;1266;22046;-81
2023/07/19 08:37:31;;;;;;;3.90;1.60;;;;;;;32.38;20.83;99999.33;110317;1266;21988;-81
2023/07/19 08:40:14;;;;;;;3.20;1.70;;;;;;;32.49;20.58;99996.86;110292;1266;21976;-79
2023/07/19 08:42:45;;;;;;;3.40;1.60;;;;;;;32.47;20.39;99997.06;110295;1266;23119;-76
2023/07/19 08:45:21;;;;;;;2.50;1.80;;;;;;;32.26;20.48;99997.38;110336;1266;23030;-78
2023/07/19 08:47:55;;;;;;;5.20;2.30;;;;;;;32.02;20.52;99992.91;110535;1260;22063;-79
2023/07/19 08:50:36;;;;;;;4.00;1.60;;;;;;;31.78;20.90;99986.83;110797;1260;22960;-78
2023/07/19 08:53:09;;;;;;;2.60;1.50;;;;;;;31.75;21.25;99983.17;111116;1255;21959;-78
2023/07/19 08:55:53;;;;;;;5.10;1.60;;;;;;;31.75;21.07;99977.02;110678;1261;23689;-78
2023/07/19 08:59:06;;;;;;;4.20;1.80;;;;;;;31.78;21.26;99974.30;110608;1261;22729;-79
2023/07/19 09:01:47;;;;;;;3.00;1.40;;;;;;;31.90;21.17;99969.85;110697;1261;21983;-78
2023/07/19 09:04:26;;;;;;;3.10;1.70;;;;;;;32.03;20.85;99964.86;110600;1261;21974;-77
2023/07/19 09:07:12;;;;;;;8.50;2.10;;;;;;;32.04;20.60;99953.23;109875;1267;22890;-78
2023/07/19 09:09:54;;;;;;;2.70;1.60;;;;;;;32.02;20.67;99956.02;110015;1267;23699;-77
2023/07/19 09:13:01;;;;;;;;;;;;;;;;;;;;;
2023/07/19 09:16:12;;;;;;;;;;;;;;;;;;;;;
2023/07/19 09:19:16;;;;;;;;;;;;;;;;;;;;;
2023/07/19 09:22:54;;;;;;;;;;;;;;;;;;;;;
2023/07/19 09:26:10;;;;;;;;;;;;;;;;;;;;;
2023/07/19 09:29:16;;;;;;;3.70;1.80;;;;;;;31.90;20.54;99937.77;110347;1266;22188;-79
2023/07/19 09:32:27;;;;;;;4.50;2.10;;;;;;;31.74;20.77;99935.68;110242;1266;22034;-78
2023/07/19 09:35:32;;;;;;;6.80;2.10;;;;;;;31.59;21.43;99932.85;110791;1260;23081;-78
2023/07/19 09:38:31;;;;;;;3.30;1.80;;;;;;;31.74;21.55;99930.57;110593;1262;21982;-78
2023/07/19 09:42:10;;;;;;;;;;;;;;;;;;;;;
2023/07/19 09:45:33;;;;;;;4.10;1.70;;;;;;;31.55;21.04;99930.61;109925;1268;22247;-79
2023/07/19 09:48:33;;;;;;;;;;;;;;;;;;;;;
2023/07/19 09:52:46;;;;;;;;;;;;;;;;;;;;;
2023/07/19 09:56:08;;;;;;;5.40;1.80;;;;;;;31.41;21.27;99914.47;108976;1274;22668;-78
2023/07/19 10:00:10;;;;;;;;;;;;;;;;;;;;;
2023/07/19 10:03:56;;;;;;;;;;;;;;;;;;;;;
2023/07/19 10:07:33;;;;;;;3.30;2.60;;;;;;;31.34;21.67;99906.77;108640;1271;22030;-83
2023/07/19 10:11:19;;;;;;;5.00;2.50;;;;;;;31.32;21.63;99902.70;108346;1281;21989;-76
2023/07/19 10:14:28;;;;;;;3.20;2.00;;;;;;;31.04;21.53;99903.59;107996;1294;22003;-80
2023/07/19 10:17:14;;;;;;;5.00;1.80;;;;;;;30.90;21.89;99897.98;107881;1290;22049;-80
2023/07/19 10:20:18;;;;;;;4.20;1.40;;;;;;;30.84;21.84;99892.34;108391;1278;22026;-80
2023/07/19 10:23:08;;;;;;;3.50;2.40;;;;;;;30.86;22.05;99891.14;108342;1290;22015;-80
2023/07/19 10:25:51;;;;;;;4.60;2.10;;;;;;;30.95;21.98;99890.08;108282;1287;22757;-80
2023/07/19 10:28:30;;;;;;;3.10;1.80;;;;;;;30.96;21.78;99883.79;108132;1291;22028;-80
2023/07/19 10:31:34;;;;;;;9.50;1.50;;;;;;;30.89;21.75;99880.70;108060;1291;21982;-79
2023/07/19 10:34:32;;;;;;;3.10;1.60;;;;;;;30.88;21.78;99881.93;107740;1294;22475;-78
2023/07/19 10:37:06;;;;;;;3.00;1.70;;;;;;;30.89;21.68;99882.92;107661;1294;22912;-79
2023/07/19 10:39:55;;;;;;;;;;;;;;;;;;;;;
2023/07/19 10:42:40;;;;;;;5.00;2.20;;;;;;;30.71;21.61;99878.04;107925;1294;22488;-79
2023/07/19 10:45:14;;;;;;;3.20;1.70;;;;;;;30.73;21.61;99875.10;108159;1289;22019;-78
2023/07/19 10:47:54;;;;;;;3.40;1.40;;;;;;;30.78;21.72;99874.25;108594;1279;22063;-78
2023/07/19 10:50:46;;;;;;;6.20;1.60;;;;;;;30.80;21.96;99876.90;109655;1263;23070;-79
2023/07/19 10:53:21;;;;;;;6.90;2.10;;;;;;;30.75;21.74;99876.64;110111;1268;22013;-78
2023/07/19 10:56:10;;;;;;;3.70;1.80;;;;;;;30.67;21.87;99873.95;109820;1264;22020;-79
2023/07/19 10:58:43;;;;;;;2.40;1.70;;;;;;;30.58;21.75;99871.30;109983;1268;23699;-81
2023/07/19 11:01:38;;;;;;;4.90;1.70;;;;;;;30.37;21.72;99871.98;109436;1272;23071;-78
2023/07/19 11:04:10;;;;;;;7.30;2.10;;;;;;;30.25;21.83;99869.31;109370;1273;23756;-78
2023/07/19 11:06:56;;;;;;;;;;;;;;;30.23;21.93;99864.63;109652;1272;22991;-79
2023/07/19 11:10:02;;;;;;;4.30;1.30;;;;;;;30.14;21.84;99859.03;109528;1270;22498;-81
2023/07/19 11:13:20;;;;;;;;;;;;;;;;;;;;;
2023/07/19 11:16:16;;;;;;;3.50;1.90;;;;;;;30.28;22.17;99858.79;109387;1273;23001;-78
2023/07/19 11:18:53;;;;;;;3.20;1.60;;;;;;;30.43;22.07;99856.83;109222;1269;21979;-79
2023/07/19 11:21:35;;;;;;;3.00;1.90;;;;;;;30.46;21.82;99851.33;109913;1268;23073;-83
2023/07/19 11:24:35;;;;;;;6.70;2.20;;;;;;;30.41;21.89;99851.21;109282;1274;22007;-79
2023/07/19 11:27:11;;;;;;;;;;;;;;;30.45;22.08;99845.69;109240;1274;23061;-79
2023/07/19 11:30:09;;;;;;;3.40;1.60;;;;;;;30.38;21.73;99838.56;109267;1269;21990;-80
2023/07/19 11:32:43;;;;;;;4.10;1.80;;;;;;;30.39;21.92;99839.29;109377;1272;24457;-81
2023/07/19 11:35:14;;;;;;;3.50;1.50;;;;;;;30.48;21.82;99838.61;109466;1272;23731;-78
2023/07/19 11:37:44;;;;;;;8.40;2.10;;;;;;;30.48;21.27;99838.20;109464;1272;21987;-78
2023/07/19 11:40:36;;;;;;;4.60;1.50;;;;;;;30.30;21.23;99822.33;109307;1272;22147;-79
2023/07/19 11:43:29;;;;;;;3.90;1.70;;;;;;;30.27;21.42;99836.14;109726;1267;22092;-79
2023/07/19 11:46:02;;;;;;;1.90;1.20;;;;;;;30.22;21.18;99830.89;110271;1267;23854;-79
2023/07/19 11:48:34;;;;;;;10.60;1.60;;;;;;;30.17;20.83;99821.45;109920;1267;23710;-79
2023/07/19 11:51:15;;;;;;;3.70;1.70;;;;;;;30.22;20.62;99822.27;109915;1267;21978;-80
2023/07/19 11:53:59;;;;;;;5.40;1.20;;;;;;;30.23;20.61;99814.77;110238;1267;22987;-80
2023/07/19 11:56:42;;;;;;;2.60;1.70;;;;;;;30.20;20.72;99803.80;109741;1268;21962;-78
2023/07/19 11:59:16;;;;;;;4.30;1.80;;;;;;;30.29;20.87;99805.05;109822;1268;21976;-79
2023/07/19 12:01:54;;;;;;;6.30;1.60;;;;;;;30.39;20.94;99812.72;109996;1268;21982;-78
2023/07/19 12:04:25;;;;;;;4.40;1.80;;;;;;;30.34;20.92;99802.05;110004;1268;22012;-80
2023/07/19 12:06:58;;;;;;;5.00;1.50;;;;;;;30.39;20.85;99810.13;110001;1267;22328;-81
2023/07/19 12:09:33;;;;;;;3.90;1.90;;;;;;;30.36;21.14;99806.17;109925;1268;21974;-81
2023/07/19 12:12:18;;;;;;;3.40;1.90;;;;;;;30.38;21.29;99807.02;109818;1268;21980;-79
2023/07/19 12:14:48;;;;;;;3.30;1.80;;;;;;;30.39;21.25;99804.15;110238;1263;21968;-78
2023/07/19 12:17:26;;;;;;;26.50;2.00;;;;;;;30.39;21.08;99801.67;110410;1263;21970;-77
2023/07/19 12:20:05;;;;;;;5.30;1.90;;;;;;;30.44;21.09;99800.07;110563;1263;22684;-78
2023/07/19 12:22:46;;;;;;;3.10;1.80;;;;;;;30.48;20.86;99798.98;109877;1269;21989;-77
2023/07/19 12:25:18;;;;;;;3.20;1.80;;;;;;;30.53;20.58;99794.72;109796;1268;22073;-76
2023/07/19 12:27:52;;;;;;;4.30;1.60;;;;;;;30.47;20.27;99782.22;109737;1269;21980;-78
2023/07/19 12:30:26;;;;;;;12.50;2.40;;;;;;;30.40;20.31;99787.13;109475;1271;22182;-77
2023/07/19 12:33:01;;;;;;;12.70;2.90;;;;;;;30.41;20.53;99783.73;109166;1276;22125;-76
2023/07/19 12:35:31;;;;;;;3.30;1.70;;;;;;;30.44;20.50;99782.42;108810;1281;22000;-78
2023/07/19 12:38:05;;;;;;;4.90;2.00;;;;;;;30.41;20.68;99786.10;108613;1281;23829;-78
2023/07/19 12:40:40;;;;;;;4.10;1.50;;;;;;;30.32;20.69;99783.61;108656;1281;22000;-78
2023/07/19 12:43:19;;;;;;;3.60;2.10;;;;;;;30.32;20.82;99782.70;108343;1286;22739;-78
2023/07/19 12:45:54;;;;;;;2.60;1.30;;;;;;;30.25;20.71;99777.98;108449;1287;21973;-77
2023/07/19 12:48:25;;;;;;;3.50;1.70;;;;;;;30.24;20.79;99784.38;108582;1284;23053;-78
2023/07/19 12:50:58;;;;;;;4.70;1.60;;;;;;;30.21;20.90;99782.23;108322;1285;22110;-78
2023/07/19 12:53:35;;;;;;;2.90;1.50;;;;;;;30.13;20.80;99771.55;108481;1284;22050;-76
2023/07/19 12:56:08;;;;;;;3.80;1.40;;;;;;;30.12;20.61;99773.52;108501;1287;22024;-78
2023/07/19 12:58:39;;;;;;;2.50;1.60;;;;;;;30.06;20.53;99772.63;108057;1292;22095;-78
2023/07/19 13:01:14;;;;;;;4.60;1.80;;;;;;;30.03;20.58;99771.41;108007;1291;22016;-80
2023/07/19 13:03:43;;;;;;;3.80;1.60;;;;;;;30.07;20.52;99772.34;108066;1292;22004;-78